sensor_id;sensor_type;location;lat;lon;timestamp;P1;durP1;ratioP1;P2;durP2;ratioP2
9547;SDS011;4812;51.992;8.648;2022-07-15T00:00:12;11.60;;;10.80;;
9547;SDS011;4812;51.992;8.648;2022-07-15T00:02:41;12.23;;;11.30;;
9547;SDS011;4812;51.992;8.648;2022-07-15T00:05:09;11.67;;;10.80;;
9547;SDS011;4812;51.992;8.648;2022-07-15T00:07:37;11.70;;;10.80;;
9547;SDS011;4812;51.992;8.648;2022-07-15T00:10:05;11.53;;;10.60;;
9547;SDS011;4812;51.992;8.648;2022-07-15T00:12:45;10.93;;;10.03;;
9547;SDS011;4812;51.992;8.648;2022-07-15T00:15:16;11.57;;;10.37;;
9547;SDS011;4812;51.992;8.648;2022-07-15T00:17:44;11.37;;;10.47;;
9547;SDS011;4812;51.992;8.648;2022-07-15T00:20:12;11.37;;;10.23;;
9547;SDS011;4812;51.992;8.648;2022-07-15T00:22:42;11.47;;;10.13;;
9547;SDS011;4812;51.992;8.648;2022-07-15T00:25:10;11.03;;;10.33;;
9547;SDS011;4812;51.992;8.648;2022-07-15T00:27:49;10.87;;;10.17;;
9547;SDS011;4812;51.992;8.648;2022-07-15T00:30:23;11.83;;;10.80;;
9547;SDS011;4812;51.992;8.648;2022-07-15T00:32:54;11.07;;;10.23;;
9547;SDS011;4812;51.992;8.648;2022-07-15T00:35:21;11.40;;;10.50;;
9547;SDS011;4812;51.992;8.648;2022-07-15T00:37:49;10.70;;;10.03;;
9547;SDS011;4812;51.992;8.648;2022-07-15T00:40:17;10.60;;;9.73;;
9547;SDS011;4812;51.992;8.648;2022-07-15T00:42:44;11.27;;;10.33;;
9547;SDS011;4812;51.992;8.648;2022-07-15T00:45:13;11.63;;;10.57;;
9547;SDS011;4812;51.992;8.648;2022-07-15T00:47:43;11.10;;;10.10;;
9547;SDS011;4812;51.992;8.648;2022-07-15T00:50:12;10.90;;;10.10;;
9547;SDS011;4812;51.992;8.648;2022-07-15T00:52:40;10.67;;;9.87;;
9547;SDS011;4812;51.992;8.648;2022-07-15T00:55:09;11.70;;;10.70;;
9547;SDS011;4812;51.992;8.648;2022-07-15T00:57:39;11.10;;;10.30;;
9547;SDS011;4812;51.992;8.648;2022-07-15T01:00:08;11.73;;;10.10;;
9547;SDS011;4812;51.992;8.648;2022-07-15T01:02:38;11.27;;;10.20;;
9547;SDS011;4812;51.992;8.648;2022-07-15T01:05:08;11.27;;;9.70;;
9547;SDS011;4812;51.992;8.648;2022-07-15T01:07:37;10.80;;;9.87;;
9547;SDS011;4812;51.992;8.648;2022-07-15T01:10:05;10.03;;;9.23;;
9547;SDS011;4812;51.992;8.648;2022-07-15T01:12:33;10.37;;;9.40;;
9547;SDS011;4812;51.992;8.648;2022-07-15T01:15:01;10.37;;;9.50;;
9547;SDS011;4812;51.992;8.648;2022-07-15T01:17:30;11.30;;;10.10;;
9547;SDS011;4812;51.992;8.648;2022-07-15T01:20:06;10.97;;;10.03;;
9547;SDS011;4812;51.992;8.648;2022-07-15T01:22:48;11.37;;;10.37;;
9547;SDS011;4812;51.992;8.648;2022-07-15T01:25:16;11.17;;;10.17;;
9547;SDS011;4812;51.992;8.648;2022-07-15T01:27:44;12.93;;;10.50;;
9547;SDS011;4812;51.992;8.648;2022-07-15T01:30:19;12.07;;;10.90;;
9547;SDS011;4812;51.992;8.648;2022-07-15T01:32:47;12.17;;;11.17;;
9547;SDS011;4812;51.992;8.648;2022-07-15T01:35:15;12.23;;;11.23;;
9547;SDS011;4812;51.992;8.648;2022-07-15T01:37:47;11.67;;;10.80;;
9547;SDS011;4812;51.992;8.648;2022-07-15T01:40:16;12.60;;;11.40;;
9547;SDS011;4812;51.992;8.648;2022-07-15T01:42:44;12.63;;;11.43;;
9547;SDS011;4812;51.992;8.648;2022-07-15T01:45:14;14.90;;;13.40;;
9547;SDS011;4812;51.992;8.648;2022-07-15T01:47:45;12.80;;;11.50;;
9547;SDS011;4812;51.992;8.648;2022-07-15T01:50:28;14.80;;;12.00;;
9547;SDS011;4812;51.992;8.648;2022-07-15T01:52:58;11.93;;;10.83;;
9547;SDS011;4812;51.992;8.648;2022-07-15T01:55:27;12.63;;;11.53;;
9547;SDS011;4812;51.992;8.648;2022-07-15T01:57:56;11.77;;;10.83;;
9547;SDS011;4812;51.992;8.648;2022-07-15T02:00:24;12.20;;;11.23;;
9547;SDS011;4812;51.992;8.648;2022-07-15T02:02:52;12.70;;;11.60;;
9547;SDS011;4812;51.992;8.648;2022-07-15T02:05:20;12.80;;;11.70;;
9547;SDS011;4812;51.992;8.648;2022-07-15T02:07:50;13.00;;;11.80;;
9547;SDS011;4812;51.992;8.648;2022-07-15T02:10:20;12.33;;;11.40;;
9547;SDS011;4812;51.992;8.648;2022-07-15T02:12:48;13.63;;;12.57;;
9547;SDS011;4812;51.992;8.648;2022-07-15T02:15:19;13.60;;;12.33;;
9547;SDS011;4812;51.992;8.648;2022-07-15T02:17:51;12.60;;;11.80;;
9547;SDS011;4812;51.992;8.648;2022-07-15T02:20:24;13.53;;;12.43;;
9547;SDS011;4812;51.992;8.648;2022-07-15T02:22:54;13.83;;;12.70;;
9547;SDS011;4812;51.992;8.648;2022-07-15T02:25:25;13.67;;;12.67;;
9547;SDS011;4812;51.992;8.648;2022-07-15T02:27:53;13.77;;;12.40;;
9547;SDS011;4812;51.992;8.648;2022-07-15T02:30:24;13.80;;;12.60;;
9547;SDS011;4812;51.992;8.648;2022-07-15T02:32:52;14.80;;;13.60;;
9547;SDS011;4812;51.992;8.648;2022-07-15T02:35:20;14.63;;;13.40;;
9547;SDS011;4812;51.992;8.648;2022-07-15T02:37:47;13.90;;;13.00;;
9547;SDS011;4812;51.992;8.648;2022-07-15T02:40:15;16.33;;;13.30;;
9547;SDS011;4812;51.992;8.648;2022-07-15T02:42:47;13.63;;;12.73;;
9547;SDS011;4812;51.992;8.648;2022-07-15T02:45:17;14.13;;;13.10;;
9547;SDS011;4812;51.992;8.648;2022-07-15T02:47:45;14.40;;;13.20;;
9547;SDS011;4812;51.992;8.648;2022-07-15T02:50:18;14.20;;;12.80;;
9547;SDS011;4812;51.992;8.648;2022-07-15T02:52:46;14.57;;;12.97;;
9547;SDS011;4812;51.992;8.648;2022-07-15T02:55:14;14.33;;;13.23;;
9547;SDS011;4812;51.992;8.648;2022-07-15T02:57:42;13.80;;;12.80;;
9547;SDS011;4812;51.992;8.648;2022-07-15T03:00:13;13.67;;;12.37;;
9547;SDS011;4812;51.992;8.648;2022-07-15T03:02:44;14.57;;;12.73;;
9547;SDS011;4812;51.992;8.648;2022-07-15T03:05:12;15.13;;;13.60;;
9547;SDS011;4812;51.992;8.648;2022-07-15T03:07:41;13.90;;;12.70;;
9547;SDS011;4812;51.992;8.648;2022-07-15T03:10:12;13.37;;;11.90;;
9547;SDS011;4812;51.992;8.648;2022-07-15T03:12:40;13.23;;;11.93;;
9547;SDS011;4812;51.992;8.648;2022-07-15T03:15:08;14.57;;;12.43;;
9547;SDS011;4812;51.992;8.648;2022-07-15T03:17:39;13.80;;;12.47;;
9547;SDS011;4812;51.992;8.648;2022-07-15T03:20:09;14.43;;;13.00;;
9547;SDS011;4812;51.992;8.648;2022-07-15T03:22:44;14.20;;;12.57;;
9547;SDS011;4812;51.992;8.648;2022-07-15T03:25:12;15.53;;;12.57;;
9547;SDS011;4812;51.992;8.648;2022-07-15T03:27:40;13.93;;;12.50;;
9547;SDS011;4812;51.992;8.648;2022-07-15T03:30:11;15.87;;;12.30;;
9547;SDS011;4812;51.992;8.648;2022-07-15T03:32:42;13.67;;;12.40;;
9547;SDS011;4812;51.992;8.648;2022-07-15T03:35:10;14.10;;;12.80;;
9547;SDS011;4812;51.992;8.648;2022-07-15T03:37:39;14.97;;;12.80;;
9547;SDS011;4812;51.992;8.648;2022-07-15T03:40:07;14.03;;;12.63;;
9547;SDS011;4812;51.992;8.648;2022-07-15T03:42:36;15.53;;;12.60;;
9547;SDS011;4812;51.992;8.648;2022-07-15T03:45:05;13.93;;;12.30;;
9547;SDS011;4812;51.992;8.648;2022-07-15T03:47:35;15.83;;;12.30;;
9547;SDS011;4812;51.992;8.648;2022-07-15T03:50:08;16.00;;;11.83;;
9547;SDS011;4812;51.992;8.648;2022-07-15T03:52:39;13.40;;;12.00;;
9547;SDS011;4812;51.992;8.648;2022-07-15T03:55:07;14.30;;;12.20;;
9547;SDS011;4812;51.992;8.648;2022-07-15T03:57:37;14.03;;;12.10;;
9547;SDS011;4812;51.992;8.648;2022-07-15T04:00:06;12.70;;;11.70;;
9547;SDS011;4812;51.992;8.648;2022-07-15T04:02:41;13.87;;;12.23;;
9547;SDS011;4812;51.992;8.648;2022-07-15T04:05:15;19.23;;;12.77;;
9547;SDS011;4812;51.992;8.648;2022-07-15T04:07:42;15.07;;;12.47;;
9547;SDS011;4812;51.992;8.648;2022-07-15T04:10:10;13.70;;;12.30;;
9547;SDS011;4812;51.992;8.648;2022-07-15T04:12:39;13.50;;;12.20;;
9547;SDS011;4812;51.992;8.648;2022-07-15T04:15:12;13.17;;;12.03;;
9547;SDS011;4812;51.992;8.648;2022-07-15T04:17:43;13.10;;;12.00;;
9547;SDS011;4812;51.992;8.648;2022-07-15T04:20:16;13.07;;;11.77;;
9547;SDS011;4812;51.992;8.648;2022-07-15T04:22:46;14.57;;;11.90;;
9547;SDS011;4812;51.992;8.648;2022-07-15T04:25:15;13.03;;;11.80;;
9547;SDS011;4812;51.992;8.648;2022-07-15T04:27:44;13.17;;;11.80;;
9547;SDS011;4812;51.992;8.648;2022-07-15T04:30:12;13.03;;;11.70;;
9547;SDS011;4812;51.992;8.648;2022-07-15T04:32:45;12.17;;;11.10;;
9547;SDS011;4812;51.992;8.648;2022-07-15T04:35:13;14.97;;;11.97;;
9547;SDS011;4812;51.992;8.648;2022-07-15T04:37:43;13.67;;;11.50;;
9547;SDS011;4812;51.992;8.648;2022-07-15T04:40:12;14.10;;;12.23;;
9547;SDS011;4812;51.992;8.648;2022-07-15T04:42:42;17.20;;;11.37;;
9547;SDS011;4812;51.992;8.648;2022-07-15T04:45:12;20.73;;;11.90;;
9547;SDS011;4812;51.992;8.648;2022-07-15T04:47:41;19.07;;;11.90;;
9547;SDS011;4812;51.992;8.648;2022-07-15T04:50:13;14.90;;;11.13;;
9547;SDS011;4812;51.992;8.648;2022-07-15T04:53:00;11.90;;;10.63;;
9547;SDS011;4812;51.992;8.648;2022-07-15T04:55:28;15.30;;;11.70;;
9547;SDS011;4812;51.992;8.648;2022-07-15T04:58:02;17.07;;;10.43;;
9547;SDS011;4812;51.992;8.648;2022-07-15T05:00:31;19.90;;;10.50;;
9547;SDS011;4812;51.992;8.648;2022-07-15T05:03:00;16.07;;;11.43;;
9547;SDS011;4812;51.992;8.648;2022-07-15T05:05:33;17.27;;;11.40;;
9547;SDS011;4812;51.992;8.648;2022-07-15T05:08:02;15.63;;;11.40;;
9547;SDS011;4812;51.992;8.648;2022-07-15T05:10:38;17.63;;;12.13;;
9547;SDS011;4812;51.992;8.648;2022-07-15T05:13:06;15.07;;;13.10;;
9547;SDS011;4812;51.992;8.648;2022-07-15T05:15:34;16.70;;;13.70;;
9547;SDS011;4812;51.992;8.648;2022-07-15T05:18:14;15.27;;;13.90;;
9547;SDS011;4812;51.992;8.648;2022-07-15T05:20:42;15.57;;;14.03;;
9547;SDS011;4812;51.992;8.648;2022-07-15T05:23:13;14.97;;;13.53;;
9547;SDS011;4812;51.992;8.648;2022-07-15T05:25:47;15.33;;;13.80;;
9547;SDS011;4812;51.992;8.648;2022-07-15T05:28:15;15.10;;;13.50;;
9547;SDS011;4812;51.992;8.648;2022-07-15T05:30:43;16.63;;;15.00;;
9547;SDS011;4812;51.992;8.648;2022-07-15T05:33:14;16.53;;;14.70;;
9547;SDS011;4812;51.992;8.648;2022-07-15T05:35:43;16.10;;;14.77;;
9547;SDS011;4812;51.992;8.648;2022-07-15T05:38:20;16.43;;;15.13;;
9547;SDS011;4812;51.992;8.648;2022-07-15T05:40:49;16.83;;;15.47;;
9547;SDS011;4812;51.992;8.648;2022-07-15T05:43:17;16.53;;;15.33;;
9547;SDS011;4812;51.992;8.648;2022-07-15T05:45:45;17.73;;;15.87;;
9547;SDS011;4812;51.992;8.648;2022-07-15T05:48:13;17.10;;;15.63;;
9547;SDS011;4812;51.992;8.648;2022-07-15T05:50:44;16.43;;;15.30;;
9547;SDS011;4812;51.992;8.648;2022-07-15T05:53:13;17.37;;;15.93;;
9547;SDS011;4812;51.992;8.648;2022-07-15T05:55:43;16.50;;;15.17;;
9547;SDS011;4812;51.992;8.648;2022-07-15T05:58:16;17.27;;;15.77;;
9547;SDS011;4812;51.992;8.648;2022-07-15T06:00:44;17.10;;;15.57;;
9547;SDS011;4812;51.992;8.648;2022-07-15T06:03:12;16.50;;;15.30;;
9547;SDS011;4812;51.992;8.648;2022-07-15T06:05:43;16.20;;;14.93;;
9547;SDS011;4812;51.992;8.648;2022-07-15T06:08:11;16.40;;;15.10;;
9547;SDS011;4812;51.992;8.648;2022-07-15T06:10:44;16.80;;;15.30;;
9547;SDS011;4812;51.992;8.648;2022-07-15T06:13:12;15.60;;;14.33;;
9547;SDS011;4812;51.992;8.648;2022-07-15T06:15:42;14.30;;;13.30;;
9547;SDS011;4812;51.992;8.648;2022-07-15T06:18:15;14.80;;;13.40;;
9547;SDS011;4812;51.992;8.648;2022-07-15T06:20:43;14.30;;;13.23;;
9547;SDS011;4812;51.992;8.648;2022-07-15T06:23:11;14.30;;;13.30;;
9547;SDS011;4812;51.992;8.648;2022-07-15T06:25:39;16.10;;;13.23;;
9547;SDS011;4812;51.992;8.648;2022-07-15T06:28:09;14.60;;;13.50;;
9547;SDS011;4812;51.992;8.648;2022-07-15T06:30:37;14.47;;;13.27;;
9547;SDS011;4812;51.992;8.648;2022-07-15T06:33:05;14.27;;;13.20;;
9547;SDS011;4812;51.992;8.648;2022-07-15T06:35:33;14.67;;;13.37;;
9547;SDS011;4812;51.992;8.648;2022-07-15T06:38:00;14.20;;;12.80;;
9547;SDS011;4812;51.992;8.648;2022-07-15T06:40:28;14.20;;;13.00;;
9547;SDS011;4812;51.992;8.648;2022-07-15T06:42:56;14.33;;;13.20;;
9547;SDS011;4812;51.992;8.648;2022-07-15T06:45:45;14.70;;;13.30;;
9547;SDS011;4812;51.992;8.648;2022-07-15T06:48:13;14.33;;;13.23;;
9547;SDS011;4812;51.992;8.648;2022-07-15T06:50:41;14.77;;;13.60;;
9547;SDS011;4812;51.992;8.648;2022-07-15T06:53:09;14.93;;;13.90;;
9547;SDS011;4812;51.992;8.648;2022-07-15T06:55:36;15.10;;;13.80;;
9547;SDS011;4812;51.992;8.648;2022-07-15T06:58:04;14.87;;;13.77;;
9547;SDS011;4812;51.992;8.648;2022-07-15T07:00:34;15.03;;;13.77;;
9547;SDS011;4812;51.992;8.648;2022-07-15T07:03:03;14.90;;;13.50;;
9547;SDS011;4812;51.992;8.648;2022-07-15T07:05:31;15.40;;;14.10;;
9547;SDS011;4812;51.992;8.648;2022-07-15T07:07:58;14.90;;;13.57;;
9547;SDS011;4812;51.992;8.648;2022-07-15T07:10:26;14.47;;;13.57;;
9547;SDS011;4812;51.992;8.648;2022-07-15T07:12:54;14.40;;;13.40;;
9547;SDS011;4812;51.992;8.648;2022-07-15T07:15:21;14.60;;;13.60;;
9547;SDS011;4812;51.992;8.648;2022-07-15T07:17:50;14.73;;;13.73;;
9547;SDS011;4812;51.992;8.648;2022-07-15T07:20:19;14.60;;;13.60;;
9547;SDS011;4812;51.992;8.648;2022-07-15T07:22:47;15.83;;;14.53;;
9547;SDS011;4812;51.992;8.648;2022-07-15T07:25:15;14.87;;;13.83;;
9547;SDS011;4812;51.992;8.648;2022-07-15T07:27:42;16.53;;;15.03;;
9547;SDS011;4812;51.992;8.648;2022-07-15T07:30:10;15.93;;;14.70;;
9547;SDS011;4812;51.992;8.648;2022-07-15T07:32:38;15.90;;;14.60;;
9547;SDS011;4812;51.992;8.648;2022-07-15T07:35:06;16.50;;;15.13;;
9547;SDS011;4812;51.992;8.648;2022-07-15T07:37:35;15.90;;;14.90;;
9547;SDS011;4812;51.992;8.648;2022-07-15T07:40:05;16.03;;;15.03;;
9547;SDS011;4812;51.992;8.648;2022-07-15T07:42:33;16.23;;;15.13;;
9547;SDS011;4812;51.992;8.648;2022-07-15T07:45:02;16.83;;;15.53;;
9547;SDS011;4812;51.992;8.648;2022-07-15T07:47:32;17.20;;;15.80;;
9547;SDS011;4812;51.992;8.648;2022-07-15T07:50:03;16.70;;;15.30;;
9547;SDS011;4812;51.992;8.648;2022-07-15T07:52:31;16.63;;;15.50;;
9547;SDS011;4812;51.992;8.648;2022-07-15T07:55:00;16.53;;;15.43;;
9547;SDS011;4812;51.992;8.648;2022-07-15T07:57:28;17.30;;;15.90;;
9547;SDS011;4812;51.992;8.648;2022-07-15T07:59:56;16.70;;;15.60;;
9547;SDS011;4812;51.992;8.648;2022-07-15T08:02:23;17.13;;;15.93;;
9547;SDS011;4812;51.992;8.648;2022-07-15T08:04:51;17.10;;;15.90;;
9547;SDS011;4812;51.992;8.648;2022-07-15T08:07:19;16.43;;;15.43;;
9547;SDS011;4812;51.992;8.648;2022-07-15T08:09:46;16.87;;;15.70;;
9547;SDS011;4812;51.992;8.648;2022-07-15T08:12:15;17.03;;;15.83;;
9547;SDS011;4812;51.992;8.648;2022-07-15T08:14:43;17.20;;;15.80;;
9547;SDS011;4812;51.992;8.648;2022-07-15T08:17:11;16.93;;;15.73;;
9547;SDS011;4812;51.992;8.648;2022-07-15T08:19:42;16.50;;;15.40;;
9547;SDS011;4812;51.992;8.648;2022-07-15T08:22:11;16.87;;;15.43;;
9547;SDS011;4812;51.992;8.648;2022-07-15T08:24:41;17.10;;;15.70;;
9547;SDS011;4812;51.992;8.648;2022-07-15T08:27:08;16.67;;;15.47;;
9547;SDS011;4812;51.992;8.648;2022-07-15T08:29:37;16.33;;;15.23;;
9547;SDS011;4812;51.992;8.648;2022-07-15T08:32:05;16.60;;;15.50;;
9547;SDS011;4812;51.992;8.648;2022-07-15T08:34:33;16.93;;;15.80;;
9547;SDS011;4812;51.992;8.648;2022-07-15T08:37:00;16.80;;;15.60;;
9547;SDS011;4812;51.992;8.648;2022-07-15T08:39:28;16.93;;;15.63;;
9547;SDS011;4812;51.992;8.648;2022-07-15T08:54:08;16.07;;;14.97;;
9547;SDS011;4812;51.992;8.648;2022-07-15T08:56:35;16.37;;;15.23;;
9547;SDS011;4812;51.992;8.648;2022-07-15T08:59:04;16.30;;;15.00;;
9547;SDS011;4812;51.992;8.648;2022-07-15T09:01:32;16.13;;;15.07;;
9547;SDS011;4812;51.992;8.648;2022-07-15T09:04:01;16.03;;;14.93;;
9547;SDS011;4812;51.992;8.648;2022-07-15T09:06:29;16.27;;;15.07;;
9547;SDS011;4812;51.992;8.648;2022-07-15T09:08:58;16.10;;;15.10;;
9547;SDS011;4812;51.992;8.648;2022-07-15T09:11:30;16.97;;;15.80;;
9547;SDS011;4812;51.992;8.648;2022-07-15T09:13:59;16.33;;;15.20;;
9547;SDS011;4812;51.992;8.648;2022-07-15T09:16:27;16.33;;;15.13;;
9547;SDS011;4812;51.992;8.648;2022-07-15T09:18:55;16.50;;;15.50;;
9547;SDS011;4812;51.992;8.648;2022-07-15T09:21:23;16.90;;;15.70;;
9547;SDS011;4812;51.992;8.648;2022-07-15T09:23:53;16.83;;;15.60;;
9547;SDS011;4812;51.992;8.648;2022-07-15T09:26:28;17.10;;;15.90;;
9547;SDS011;4812;51.992;8.648;2022-07-15T09:29:00;16.47;;;15.53;;
9547;SDS011;4812;51.992;8.648;2022-07-15T09:31:29;16.47;;;15.37;;
9547;SDS011;4812;51.992;8.648;2022-07-15T09:34:15;16.70;;;15.70;;
9547;SDS011;4812;51.992;8.648;2022-07-15T09:36:44;17.10;;;15.70;;
9547;SDS011;4812;51.992;8.648;2022-07-15T09:39:17;16.50;;;15.27;;
9547;SDS011;4812;51.992;8.648;2022-07-15T09:41:45;16.67;;;15.53;;
9547;SDS011;4812;51.992;8.648;2022-07-15T09:44:16;16.23;;;15.27;;
9547;SDS011;4812;51.992;8.648;2022-07-15T09:46:44;16.97;;;15.97;;
9547;SDS011;4812;51.992;8.648;2022-07-15T09:49:14;16.37;;;15.37;;
9547;SDS011;4812;51.992;8.648;2022-07-15T09:51:45;16.93;;;15.53;;
9547;SDS011;4812;51.992;8.648;2022-07-15T09:54:14;16.40;;;15.30;;
9547;SDS011;4812;51.992;8.648;2022-07-15T09:56:42;16.90;;;15.70;;
9547;SDS011;4812;51.992;8.648;2022-07-15T09:59:10;16.47;;;15.47;;
9547;SDS011;4812;51.992;8.648;2022-07-15T10:01:39;16.40;;;15.30;;
9547;SDS011;4812;51.992;8.648;2022-07-15T10:04:08;16.83;;;15.77;;
9547;SDS011;4812;51.992;8.648;2022-07-15T10:06:37;16.80;;;15.67;;
9547;SDS011;4812;51.992;8.648;2022-07-15T10:09:05;16.70;;;15.60;;
9547;SDS011;4812;51.992;8.648;2022-07-15T10:11:34;16.60;;;15.40;;
9547;SDS011;4812;51.992;8.648;2022-07-15T10:14:27;16.43;;;15.33;;
9547;SDS011;4812;51.992;8.648;2022-07-15T10:20:27;16.70;;;15.70;;
9547;SDS011;4812;51.992;8.648;2022-07-15T10:23:47;16.03;;;15.13;;
9547;SDS011;4812;51.992;8.648;2022-07-15T10:26:28;16.20;;;15.30;;
9547;SDS011;4812;51.992;8.648;2022-07-15T10:29:06;16.73;;;15.63;;
9547;SDS011;4812;51.992;8.648;2022-07-15T10:31:36;17.20;;;16.10;;
9547;SDS011;4812;51.992;8.648;2022-07-15T10:34:19;16.57;;;15.57;;
9547;SDS011;4812;51.992;8.648;2022-07-15T10:36:54;16.47;;;15.43;;
9547;SDS011;4812;51.992;8.648;2022-07-15T10:39:24;16.73;;;15.80;;
9547;SDS011;4812;51.992;8.648;2022-07-15T10:41:54;15.82;;;14.80;;
9547;SDS011;4812;51.992;8.648;2022-07-15T10:44:25;16.45;;;15.48;;
9547;SDS011;4812;51.992;8.648;2022-07-15T10:49:50;15.80;;;14.88;;
9547;SDS011;4812;51.992;8.648;2022-07-15T10:52:18;16.45;;;15.45;;
9547;SDS011;4812;51.992;8.648;2022-07-15T10:54:47;16.48;;;15.45;;
9547;SDS011;4812;51.992;8.648;2022-07-15T10:57:50;15.65;;;14.65;;
9547;SDS011;4812;51.992;8.648;2022-07-15T11:00:27;15.35;;;14.35;;
9547;SDS011;4812;51.992;8.648;2022-07-15T11:03:00;15.68;;;14.65;;
9547;SDS011;4812;51.992;8.648;2022-07-15T11:05:30;15.82;;;14.82;;
9547;SDS011;4812;51.992;8.648;2022-07-15T11:07:58;16.42;;;15.25;;
9547;SDS011;4812;51.992;8.648;2022-07-15T11:10:26;15.70;;;14.80;;
9547;SDS011;4812;51.992;8.648;2022-07-15T11:12:54;16.23;;;15.20;;
9547;SDS011;4812;51.992;8.648;2022-07-15T11:15:27;15.67;;;14.67;;
9547;SDS011;4812;51.992;8.648;2022-07-15T11:17:55;15.97;;;14.97;;
9547;SDS011;4812;51.992;8.648;2022-07-15T11:20:36;15.90;;;15.00;;
9547;SDS011;4812;51.992;8.648;2022-07-15T11:23:05;15.93;;;14.93;;
9547;SDS011;4812;51.992;8.648;2022-07-15T11:25:34;16.37;;;15.33;;
9547;SDS011;4812;51.992;8.648;2022-07-15T11:28:04;16.37;;;15.20;;
9547;SDS011;4812;51.992;8.648;2022-07-15T11:30:35;16.20;;;15.20;;
9547;SDS011;4812;51.992;8.648;2022-07-15T11:33:06;15.97;;;14.97;;
9547;SDS011;4812;51.992;8.648;2022-07-15T11:35:46;16.20;;;15.20;;
9547;SDS011;4812;51.992;8.648;2022-07-15T11:38:17;16.40;;;15.40;;
9547;SDS011;4812;51.992;8.648;2022-07-15T11:40:46;15.80;;;14.80;;
9547;SDS011;4812;51.992;8.648;2022-07-15T11:43:32;16.20;;;15.10;;
9547;SDS011;4812;51.992;8.648;2022-07-15T11:46:19;16.20;;;15.00;;
9547;SDS011;4812;51.992;8.648;2022-07-15T11:48:48;15.80;;;14.90;;
9547;SDS011;4812;51.992;8.648;2022-07-15T11:51:22;15.77;;;14.87;;
9547;SDS011;4812;51.992;8.648;2022-07-15T11:53:51;16.80;;;15.50;;
9547;SDS011;4812;51.992;8.648;2022-07-15T11:56:19;15.87;;;14.97;;
9547;SDS011;4812;51.992;8.648;2022-07-15T11:58:49;15.50;;;14.57;;
9547;SDS011;4812;51.992;8.648;2022-07-15T12:01:19;16.13;;;14.93;;
9547;SDS011;4812;51.992;8.648;2022-07-15T12:03:48;16.20;;;14.90;;
9547;SDS011;4812;51.992;8.648;2022-07-15T12:06:20;15.73;;;14.80;;
9547;SDS011;4812;51.992;8.648;2022-07-15T12:08:49;15.47;;;14.57;;
9547;SDS011;4812;51.992;8.648;2022-07-15T12:11:19;16.10;;;14.90;;
9547;SDS011;4812;51.992;8.648;2022-07-15T12:13:50;15.90;;;14.90;;
9547;SDS011;4812;51.992;8.648;2022-07-15T12:16:21;15.93;;;14.83;;
9547;SDS011;4812;51.992;8.648;2022-07-15T12:18:53;15.38;;;14.48;;
9547;SDS011;4812;51.992;8.648;2022-07-15T12:21:24;15.90;;;14.87;;
9547;SDS011;4812;51.992;8.648;2022-07-15T12:23:59;15.80;;;14.60;;
9547;SDS011;4812;51.992;8.648;2022-07-15T12:26:28;15.30;;;14.40;;
9547;SDS011;4812;51.992;8.648;2022-07-15T12:28:56;15.67;;;14.67;;
9547;SDS011;4812;51.992;8.648;2022-07-15T12:31:25;16.30;;;15.30;;
9547;SDS011;4812;51.992;8.648;2022-07-15T12:33:53;15.73;;;14.83;;
9547;SDS011;4812;51.992;8.648;2022-07-15T12:36:22;15.60;;;14.60;;
9547;SDS011;4812;51.992;8.648;2022-07-15T12:39:03;15.70;;;14.70;;
9547;SDS011;4812;51.992;8.648;2022-07-15T12:41:32;15.90;;;14.67;;
9547;SDS011;4812;51.992;8.648;2022-07-15T12:44:01;15.90;;;14.90;;
9547;SDS011;4812;51.992;8.648;2022-07-15T12:49:36;15.38;;;14.42;;
9547;SDS011;4812;51.992;8.648;2022-07-15T12:52:15;16.23;;;15.20;;
9547;SDS011;4812;51.992;8.648;2022-07-15T12:55:12;15.63;;;14.73;;
9547;SDS011;4812;51.992;8.648;2022-07-15T12:57:41;15.60;;;14.68;;
9547;SDS011;4812;51.992;8.648;2022-07-15T13:00:11;15.50;;;14.52;;
9547;SDS011;4812;51.992;8.648;2022-07-15T13:05:28;15.80;;;14.90;;
9547;SDS011;4812;51.992;8.648;2022-07-15T13:07:58;15.63;;;14.68;;
9547;SDS011;4812;51.992;8.648;2022-07-15T13:10:27;15.00;;;14.20;;
9547;SDS011;4812;51.992;8.648;2022-07-15T13:12:55;15.50;;;14.50;;
9547;SDS011;4812;51.992;8.648;2022-07-15T13:15:23;15.27;;;14.38;;
9547;SDS011;4812;51.992;8.648;2022-07-15T13:17:51;15.68;;;14.57;;
9547;SDS011;4812;51.992;8.648;2022-07-15T13:20:19;15.50;;;14.38;;
9547;SDS011;4812;51.992;8.648;2022-07-15T13:22:47;15.57;;;14.50;;
9547;SDS011;4812;51.992;8.648;2022-07-15T13:25:17;15.33;;;14.43;;
9547;SDS011;4812;51.992;8.648;2022-07-15T13:27:45;15.40;;;14.50;;
9547;SDS011;4812;51.992;8.648;2022-07-15T13:30:13;15.50;;;14.50;;
9547;SDS011;4812;51.992;8.648;2022-07-15T13:32:41;15.67;;;14.67;;
9547;SDS011;4812;51.992;8.648;2022-07-15T13:35:10;16.07;;;15.00;;
9547;SDS011;4812;51.992;8.648;2022-07-15T13:37:39;16.50;;;15.40;;
9547;SDS011;4812;51.992;8.648;2022-07-15T13:40:08;15.93;;;14.83;;
9547;SDS011;4812;51.992;8.648;2022-07-15T13:42:38;15.67;;;14.53;;
9547;SDS011;4812;51.992;8.648;2022-07-15T13:45:07;16.40;;;15.20;;
9547;SDS011;4812;51.992;8.648;2022-07-15T13:47:36;15.77;;;14.87;;
9547;SDS011;4812;51.992;8.648;2022-07-15T13:50:05;16.03;;;15.13;;
9547;SDS011;4812;51.992;8.648;2022-07-15T13:52:51;15.97;;;14.87;;
9547;SDS011;4812;51.992;8.648;2022-07-15T13:55:20;16.20;;;15.20;;
9547;SDS011;4812;51.992;8.648;2022-07-15T13:57:50;15.93;;;14.93;;
9547;SDS011;4812;51.992;8.648;2022-07-15T14:00:19;16.00;;;15.00;;
9547;SDS011;4812;51.992;8.648;2022-07-15T14:02:47;15.80;;;14.70;;
9547;SDS011;4812;51.992;8.648;2022-07-15T14:05:16;15.93;;;14.97;;
9547;SDS011;4812;51.992;8.648;2022-07-15T14:07:44;15.93;;;15.03;;
9547;SDS011;4812;51.992;8.648;2022-07-15T14:10:12;15.63;;;14.73;;
9547;SDS011;4812;51.992;8.648;2022-07-15T14:12:40;15.57;;;14.60;;
9547;SDS011;4812;51.992;8.648;2022-07-15T14:15:09;15.57;;;14.53;;
9547;SDS011;4812;51.992;8.648;2022-07-15T14:17:37;15.50;;;14.40;;
9547;SDS011;4812;51.992;8.648;2022-07-15T14:20:05;15.50;;;14.50;;
9547;SDS011;4812;51.992;8.648;2022-07-15T14:22:34;15.90;;;14.90;;
9547;SDS011;4812;51.992;8.648;2022-07-15T14:25:02;15.57;;;14.50;;
9547;SDS011;4812;51.992;8.648;2022-07-15T14:27:31;15.37;;;14.47;;
9547;SDS011;4812;51.992;8.648;2022-07-15T14:29:58;15.57;;;14.77;;
9547;SDS011;4812;51.992;8.648;2022-07-15T14:32:35;15.40;;;14.50;;
9547;SDS011;4812;51.992;8.648;2022-07-15T14:35:03;15.23;;;14.33;;
9547;SDS011;4812;51.992;8.648;2022-07-15T14:37:31;15.53;;;14.53;;
9547;SDS011;4812;51.992;8.648;2022-07-15T14:40:01;15.10;;;14.20;;
9547;SDS011;4812;51.992;8.648;2022-07-15T14:42:29;15.60;;;14.53;;
9547;SDS011;4812;51.992;8.648;2022-07-15T14:44:58;15.30;;;14.40;;
9547;SDS011;4812;51.992;8.648;2022-07-15T14:47:26;15.50;;;14.50;;
9547;SDS011;4812;51.992;8.648;2022-07-15T14:49:55;16.33;;;15.13;;
9547;SDS011;4812;51.992;8.648;2022-07-15T14:52:23;15.13;;;14.33;;
9547;SDS011;4812;51.992;8.648;2022-07-15T14:54:50;15.13;;;14.20;;
9547;SDS011;4812;51.992;8.648;2022-07-15T14:57:18;16.23;;;15.03;;
9547;SDS011;4812;51.992;8.648;2022-07-15T14:59:47;15.70;;;14.80;;
9547;SDS011;4812;51.992;8.648;2022-07-15T15:02:14;15.33;;;14.43;;
9547;SDS011;4812;51.992;8.648;2022-07-15T15:04:42;15.63;;;14.60;;
9547;SDS011;4812;51.992;8.648;2022-07-15T15:07:11;15.40;;;14.50;;
9547;SDS011;4812;51.992;8.648;2022-07-15T15:09:39;15.70;;;14.80;;
9547;SDS011;4812;51.992;8.648;2022-07-15T15:12:06;15.73;;;14.87;;
9547;SDS011;4812;51.992;8.648;2022-07-15T15:14:35;15.90;;;14.90;;
9547;SDS011;4812;51.992;8.648;2022-07-15T15:17:02;15.60;;;14.70;;
9547;SDS011;4812;51.992;8.648;2022-07-15T15:19:34;15.93;;;14.90;;
9547;SDS011;4812;51.992;8.648;2022-07-15T15:22:02;16.10;;;15.20;;
9547;SDS011;4812;51.992;8.648;2022-07-15T15:24:31;16.27;;;15.17;;
9547;SDS011;4812;51.992;8.648;2022-07-15T15:27:00;15.53;;;14.70;;
9547;SDS011;4812;51.992;8.648;2022-07-15T15:29:28;16.00;;;14.93;;